createdAt,value
2023-04-20T00:02:31.861Z,100.00
2023-04-20T00:06:34.438Z,100.00
2023-04-20T00:10:36.843Z,100.00
2023-04-20T00:14:38.936Z,100.00
2023-04-20T00:18:41.280Z,100.00
2023-04-20T00:22:43.463Z,100.00
2023-04-20T00:26:45.625Z,100.00
2023-04-20T00:30:48.432Z,100.00
2023-04-20T00:34:50.731Z,100.00
2023-04-20T00:38:52.890Z,100.00
2023-04-20T00:42:56.229Z,100.00
2023-04-20T00:46:59.587Z,100.00
2023-04-20T00:51:02.471Z,100.00
2023-04-20T00:55:06.180Z,100.00
2023-04-20T00:59:08.621Z,100.00
2023-04-20T01:03:11.088Z,100.00
2023-04-20T01:07:13.729Z,100.00
2023-04-20T01:11:17.064Z,100.00
2023-04-20T01:15:19.306Z,100.00
2023-04-20T01:19:21.910Z,100.00
2023-04-20T01:23:24.792Z,100.00
2023-04-20T01:27:26.865Z,100.00
2023-04-20T01:31:28.952Z,100.00
2023-04-20T01:35:33.440Z,100.00
2023-04-20T01:39:38.952Z,100.00
2023-04-20T01:43:41.319Z,100.00
2023-04-20T01:47:43.397Z,100.00
2023-04-20T01:51:45.502Z,100.00
2023-04-20T01:55:48.736Z,100.00
2023-04-20T01:59:50.865Z,100.00
2023-04-20T02:03:53.239Z,100.00
2023-04-20T02:07:56.458Z,100.00
2023-04-20T02:11:58.255Z,100.00
2023-04-20T02:16:00.211Z,100.00
2023-04-20T02:20:04.568Z,100.00
2023-04-20T02:24:06.972Z,100.00
2023-04-20T02:28:09.004Z,100.00
2023-04-20T02:32:13.749Z,100.00
2023-04-20T02:36:17.230Z,100.00
2023-04-20T02:40:19.335Z,100.00
2023-04-20T02:44:21.480Z,100.00
2023-04-20T02:48:24.441Z,100.00
2023-04-20T02:52:26.597Z,100.00
2023-04-20T02:56:32.320Z,100.00
2023-04-20T03:00:38.817Z,100.00
2023-04-20T03:04:43.719Z,100.00
2023-04-20T03:08:56.567Z,100.00
2023-04-20T03:13:18.938Z,100.00
2023-04-20T03:17:36.708Z,100.00
2023-04-20T03:21:39.757Z,100.00
2023-04-20T03:25:42.705Z,100.00
2023-04-20T03:29:52.614Z,100.00
2023-04-20T03:33:54.608Z,100.00
2023-04-20T03:37:56.723Z,100.00
2023-04-20T03:41:59.238Z,100.00
2023-04-20T03:46:01.245Z,100.00
2023-04-20T03:50:04.280Z,100.00
2023-04-20T03:54:07.103Z,100.00
2023-04-20T03:58:09.505Z,100.00
2023-04-20T04:02:28.266Z,100.00
2023-04-20T04:06:32.134Z,100.00
2023-04-20T04:10:33.866Z,100.00
2023-04-20T04:14:36.067Z,100.00
2023-04-20T04:18:43.565Z,100.00
2023-04-20T04:22:45.701Z,100.00
2023-04-20T04:27:07.031Z,100.00
2023-04-20T04:31:14.711Z,100.00
2023-04-20T04:35:17.904Z,100.00
2023-04-20T04:39:20.916Z,100.00
2023-04-20T04:43:35.083Z,100.00
2023-04-20T04:47:54.024Z,100.00
2023-04-20T04:51:56.262Z,100.00
2023-04-20T04:55:58.444Z,100.00
2023-04-20T05:00:00.598Z,100.00
2023-04-20T05:04:02.874Z,100.00
2023-04-20T05:08:05.534Z,100.00
2023-04-20T05:12:07.773Z,100.00
2023-04-20T05:16:09.890Z,100.00
2023-04-20T05:20:12.347Z,100.00
2023-04-20T05:24:14.661Z,100.00
2023-04-20T05:28:16.769Z,100.00
2023-04-20T05:32:18.868Z,100.00
2023-04-20T05:36:21.013Z,100.00
2023-04-20T05:40:22.988Z,100.00
2023-04-20T05:44:25.107Z,100.00
2023-04-20T05:48:29.805Z,100.00
2023-04-20T05:52:32.143Z,100.00
2023-04-20T05:56:34.235Z,100.00
2023-04-20T06:00:36.370Z,100.00
2023-04-20T06:04:38.805Z,100.00
2023-04-20T06:08:41.138Z,100.00
2023-04-20T06:12:43.129Z,100.00
2023-04-20T06:16:45.240Z,100.00
2023-04-20T06:20:47.325Z,100.00
2023-04-20T06:24:49.408Z,100.00
2023-04-20T06:28:53.051Z,100.00
2023-04-20T06:32:55.257Z,100.00
2023-04-20T06:36:57.416Z,100.00
2023-04-20T06:41:02.115Z,100.00
2023-04-20T06:45:06.399Z,100.00
2023-04-20T06:49:08.403Z,100.00
2023-04-20T06:53:10.515Z,100.00
2023-04-20T06:57:12.583Z,100.00
2023-04-20T07:01:14.631Z,100.00
2023-04-20T07:05:18.093Z,100.00
2023-04-20T07:09:20.868Z,100.00
2023-04-20T07:13:22.951Z,100.00
2023-04-20T07:17:28.106Z,100.00
2023-04-20T07:21:31.552Z,100.00
2023-04-20T07:25:33.869Z,100.00
2023-04-20T07:29:36.159Z,100.00
2023-04-20T07:33:39.590Z,100.00
2023-04-20T07:37:41.697Z,100.00
2023-04-20T07:41:43.959Z,100.00
2023-04-20T07:45:46.109Z,100.00
2023-04-20T07:49:48.202Z,100.00
2023-04-20T07:53:50.294Z,100.00
2023-04-20T07:57:52.370Z,100.00
2023-04-20T08:02:02.563Z,100.00
2023-04-20T08:06:04.815Z,100.00
2023-04-20T08:10:07.819Z,100.00
2023-04-20T08:14:09.786Z,94.69
2023-04-20T08:18:11.905Z,94.71
2023-04-20T08:22:14.198Z,97.77
2023-04-20T08:26:17.249Z,85.36
2023-04-20T08:30:19.200Z,93.59
2023-04-20T08:34:21.746Z,90.16
2023-04-20T08:38:33.454Z,90.16
2023-04-20T08:42:36.378Z,79.04
2023-04-20T08:46:41.233Z,91.70
2023-04-20T08:50:43.479Z,84.25
2023-04-20T08:54:55.954Z,79.70
2023-04-20T08:58:58.905Z,82.54
2023-04-20T09:03:01.982Z,70.31
2023-04-20T09:07:04.453Z,72.81
2023-04-20T09:11:07.278Z,69.21
2023-04-20T09:15:10.952Z,66.29
2023-04-20T09:19:14.058Z,68.08
2023-04-20T09:23:17.150Z,62.54
2023-04-20T09:27:19.655Z,61.77
2023-04-20T09:31:22.802Z,63.04
2023-04-20T09:35:25.020Z,58.87
2023-04-20T09:39:27.138Z,54.78
2023-04-20T09:43:30.638Z,51.89
2023-04-20T09:47:36.800Z,53.09
2023-04-20T09:51:47.016Z,51.56
2023-04-20T09:55:51.252Z,54.86
2023-04-20T09:59:54.493Z,52.95
2023-04-20T10:03:57.580Z,49.21
2023-04-20T10:08:01.276Z,50.18
2023-04-20T10:12:08.105Z,46.79
2023-04-20T10:16:18.321Z,49.02
2023-04-20T10:20:26.474Z,51.24
2023-04-20T10:24:32.195Z,43.49
2023-04-20T10:28:41.863Z,46.18
2023-04-20T10:32:43.944Z,42.05
2023-04-20T10:36:46.176Z,44.58
2023-04-20T10:40:48.317Z,41.03
2023-04-20T10:44:51.889Z,44.89
2023-04-20T10:48:58.065Z,42.97
2023-04-20T10:53:00.578Z,39.92
2023-04-20T10:57:03.242Z,41.75
2023-04-20T11:01:05.893Z,39.89
2023-04-20T11:05:12.463Z,40.31
2023-04-20T11:09:23.727Z,41.20
2023-04-20T11:13:29.148Z,39.24
2023-04-20T11:17:33.580Z,42.62
2023-04-20T11:21:41.513Z,39.90
2023-04-20T11:25:53.743Z,41.96
2023-04-20T11:29:58.247Z,38.42
2023-04-20T11:34:00.596Z,41.62
2023-04-20T11:38:02.941Z,40.80
2023-04-20T11:42:05.812Z,42.71
2023-04-20T11:46:18.719Z,39.04
2023-04-20T11:50:21.961Z,39.69
2023-04-20T11:54:24.489Z,38.31
2023-04-20T11:58:27.152Z,37.53
2023-04-20T12:02:29.387Z,38.60
2023-04-20T12:06:34.462Z,41.79
2023-04-20T12:10:36.454Z,39.85
2023-04-20T12:14:38.574Z,40.58
2023-04-20T12:18:41.375Z,40.34
2023-04-20T12:22:43.453Z,38.22
2023-04-20T12:26:45.966Z,38.05
2023-04-20T12:30:48.057Z,36.77
2023-04-20T12:34:50.085Z,35.09
2023-04-20T12:38:52.570Z,37.28
2023-04-20T12:42:54.632Z,36.77
2023-04-20T12:46:56.691Z,36.35
2023-04-20T12:50:58.879Z,37.49
2023-04-20T12:55:01.763Z,39.01
2023-04-20T12:59:03.590Z,36.91
2023-04-20T13:03:05.810Z,35.87
2023-04-20T13:07:08.284Z,37.38
2023-04-20T13:11:15.534Z,34.88
2023-04-20T13:15:31.740Z,36.38
2023-04-20T13:19:40.084Z,40.08
2023-04-20T13:23:42.198Z,36.99
2023-04-20T13:27:44.532Z,37.14
2023-04-20T13:31:48.401Z,35.14
2023-04-20T13:35:50.735Z,35.66
2023-04-20T13:39:52.739Z,36.63
2023-04-20T13:43:57.974Z,35.69
2023-04-20T13:48:00.073Z,35.01
2023-04-20T13:52:02.646Z,37.30
2023-04-20T13:56:05.213Z,37.61
2023-04-20T14:00:08.348Z,38.09
2023-04-20T14:04:10.832Z,37.04
2023-04-20T14:08:13.825Z,39.73
2023-04-20T14:12:16.150Z,35.62
2023-04-20T14:16:18.461Z,35.21
2023-04-20T14:20:20.619Z,34.75
2023-04-20T14:24:22.884Z,33.33
2023-04-20T14:28:24.974Z,33.82
2023-04-20T14:32:27.425Z,35.82
2023-04-20T14:36:30.601Z,36.72
2023-04-20T14:40:32.791Z,36.95
2023-04-20T14:44:34.805Z,36.92
2023-04-20T14:48:38.187Z,36.98
2023-04-20T14:52:40.225Z,36.32
2023-04-20T14:56:42.340Z,36.32
2023-04-20T15:00:44.969Z,38.05
2023-04-20T15:04:47.335Z,39.18
2023-04-20T15:08:49.711Z,38.95
2023-04-20T15:12:51.986Z,36.42
2023-04-20T15:16:54.289Z,37.56
2023-04-20T15:20:56.440Z,35.75
2023-04-20T15:24:58.400Z,37.13
2023-04-20T15:29:00.546Z,37.94
2023-04-20T15:33:04.396Z,38.37
2023-04-20T15:37:07.766Z,34.45
2023-04-20T15:41:09.819Z,32.05
2023-04-20T15:45:11.943Z,31.65
2023-04-20T15:49:13.977Z,31.57
2023-04-20T15:53:16.037Z,34.03
2023-04-20T15:57:18.033Z,34.91
2023-04-20T16:01:20.591Z,35.57
2023-04-20T16:05:22.846Z,36.86
2023-04-20T16:09:25.075Z,38.10
2023-04-20T16:13:27.099Z,38.05
2023-04-20T16:17:29.381Z,39.17
2023-04-20T16:21:31.885Z,38.82
2023-04-20T16:25:34.485Z,37.46
2023-04-20T16:29:36.533Z,38.73
2023-04-20T16:33:38.659Z,38.74
2023-04-20T16:37:40.687Z,39.45
2023-04-20T16:41:42.767Z,39.62
2023-04-20T16:45:44.757Z,40.19
2023-04-20T16:49:47.349Z,40.80
2023-04-20T16:53:49.552Z,39.98
2023-04-20T16:57:51.735Z,42.42
2023-04-20T17:01:54.191Z,41.42
2023-04-20T17:05:56.273Z,43.07
2023-04-20T17:09:58.508Z,43.69
2023-04-20T17:14:00.502Z,45.39
2023-04-20T17:18:02.574Z,46.14
2023-04-20T17:22:04.875Z,47.56
2023-04-20T17:26:06.989Z,47.34
2023-04-20T17:30:09.644Z,49.95
2023-04-20T17:34:11.663Z,52.53
2023-04-20T17:38:13.809Z,66.18
2023-04-20T17:42:16.943Z,80.78
2023-04-20T17:46:19.075Z,87.23
2023-04-20T17:50:22.567Z,78.50
2023-04-20T17:54:25.740Z,94.91
2023-04-20T17:58:27.452Z,100.00
2023-04-20T18:02:29.558Z,100.00
2023-04-20T18:06:33.236Z,100.00
2023-04-20T18:10:35.402Z,100.00
2023-04-20T18:14:39.152Z,100.00
2023-04-20T18:18:41.204Z,100.00
2023-04-20T18:22:43.328Z,100.00
2023-04-20T18:26:46.025Z,100.00
2023-04-20T18:30:48.420Z,100.00
2023-04-20T18:34:50.682Z,100.00
2023-04-20T18:38:54.054Z,100.00
2023-04-20T18:42:57.312Z,100.00
2023-04-20T18:46:59.813Z,100.00
2023-04-20T18:51:02.073Z,100.00
2023-04-20T18:55:04.313Z,100.00
2023-04-20T18:59:08.480Z,100.00
2023-04-20T19:03:11.004Z,100.00
2023-04-20T19:07:13.232Z,100.00
2023-04-20T19:11:15.534Z,100.00
2023-04-20T19:15:22.551Z,100.00
2023-04-20T19:19:24.561Z,100.00
2023-04-20T19:23:26.640Z,100.00
2023-04-20T19:27:28.698Z,100.00
2023-04-20T19:31:36.770Z,100.00
2023-04-20T19:35:39.026Z,100.00
2023-04-20T19:39:41.053Z,100.00
2023-04-20T19:43:43.046Z,100.00
2023-04-20T19:47:45.536Z,100.00
2023-04-20T19:51:47.718Z,100.00
2023-04-20T19:55:49.881Z,100.00
2023-04-20T19:59:52.189Z,100.00
2023-04-20T20:03:54.516Z,100.00
2023-04-20T20:07:56.661Z,100.00
2023-04-20T20:12:01.094Z,100.00
2023-04-20T20:16:04.056Z,100.00
2023-04-20T20:20:07.047Z,100.00
2023-04-20T20:24:09.215Z,100.00
2023-04-20T20:28:11.437Z,100.00
2023-04-20T20:32:13.457Z,100.00
2023-04-20T20:36:17.729Z,100.00
2023-04-20T20:40:20.114Z,100.00
2023-04-20T20:44:22.192Z,100.00
2023-04-20T20:48:24.364Z,100.00
2023-04-20T20:52:26.387Z,100.00
2023-04-20T20:56:28.446Z,100.00
2023-04-20T21:00:30.849Z,100.00
2023-04-20T21:04:33.272Z,100.00
2023-04-20T21:08:35.325Z,100.00
2023-04-20T21:12:37.536Z,100.00
2023-04-20T21:16:39.709Z,100.00
2023-04-20T21:20:41.851Z,100.00
2023-04-20T21:24:44.033Z,100.00
2023-04-20T21:28:46.019Z,100.00
2023-04-20T21:32:48.127Z,100.00
2023-04-20T21:36:50.252Z,100.00
2023-04-20T21:40:52.485Z,100.00
2023-04-20T21:44:54.519Z,100.00
2023-04-20T21:48:56.559Z,100.00
2023-04-20T21:52:58.571Z,100.00
2023-04-20T21:57:00.623Z,100.00
2023-04-20T22:01:03.005Z,100.00
2023-04-20T22:05:05.544Z,100.00
2023-04-20T22:09:07.989Z,100.00
2023-04-20T22:13:10.100Z,100.00
2023-04-20T22:17:14.388Z,100.00
2023-04-20T22:21:16.536Z,100.00
2023-04-20T22:25:18.642Z,100.00
2023-04-20T22:29:21.018Z,100.00
2023-04-20T22:33:23.206Z,100.00
2023-04-20T22:37:25.933Z,100.00
2023-04-20T22:41:27.874Z,100.00
2023-04-20T22:45:29.893Z,100.00
2023-04-20T22:49:32.012Z,100.00
2023-04-20T22:53:34.192Z,100.00
2023-04-20T22:57:36.590Z,100.00
2023-04-20T23:01:38.678Z,100.00
2023-04-20T23:05:44.385Z,100.00
2023-04-20T23:09:46.440Z,100.00
2023-04-20T23:13:48.494Z,100.00
2023-04-20T23:17:50.949Z,100.00
2023-04-20T23:21:52.991Z,100.00
2023-04-20T23:25:55.015Z,100.00
2023-04-20T23:29:56.979Z,100.00
2023-04-20T23:33:59.367Z,100.00
2023-04-20T23:38:01.415Z,100.00
2023-04-20T23:42:04.936Z,100.00
2023-04-20T23:46:07.758Z,100.00
2023-04-20T23:50:10.025Z,100.00
2023-04-20T23:54:12.008Z,100.00
2023-04-20T23:58:14.076Z,100.00
